sensor_id;sensor_type;location;lat;lon;timestamp;P1;durP1;ratioP1;P2;durP2;ratioP2
2147;SDS011;1080;48.724;9.104;2023-02-28T10:37:38;8.80;;;6.17;;
2147;SDS011;1080;48.724;9.104;2023-02-28T10:40:06;6.30;;;4.40;;
2147;SDS011;1080;48.724;9.104;2023-02-28T10:42:54;7.50;;;5.37;;
2147;SDS011;1080;48.724;9.104;2023-02-28T10:45:22;8.63;;;5.30;;
2147;SDS011;1080;48.724;9.104;2023-02-28T10:47:52;12.67;;;6.70;;
2147;SDS011;1080;48.724;9.104;2023-02-28T10:53:16;10.53;;;6.60;;
2147;SDS011;1080;48.724;9.104;2023-02-28T10:55:56;9.60;;;6.67;;
2147;SDS011;1080;48.724;9.104;2023-02-28T10:58:24;5.43;;;3.43;;
2147;SDS011;1080;48.724;9.104;2023-02-28T11:00:53;9.47;;;6.50;;
2147;SDS011;1080;48.724;9.104;2023-02-28T11:03:24;10.50;;;5.70;;
2147;SDS011;1080;48.724;9.104;2023-02-28T11:05:56;7.60;;;5.73;;
2147;SDS011;1080;48.724;9.104;2023-02-28T11:08:27;7.97;;;5.20;;
2147;SDS011;1080;48.724;9.104;2023-02-28T11:10:55;10.83;;;7.93;;
2147;SDS011;1080;48.724;9.104;2023-02-28T11:13:32;8.10;;;5.80;;
2147;SDS011;1080;48.724;9.104;2023-02-28T11:16:00;8.37;;;6.27;;
2147;SDS011;1080;48.724;9.104;2023-02-28T11:18:33;6.60;;;4.43;;
2147;SDS011;1080;48.724;9.104;2023-02-28T11:21:06;8.03;;;5.80;;
2147;SDS011;1080;48.724;9.104;2023-02-28T11:23:36;10.50;;;6.90;;
2147;SDS011;1080;48.724;9.104;2023-02-28T11:26:07;9.40;;;6.20;;
2147;SDS011;1080;48.724;9.104;2023-02-28T11:28:36;8.63;;;6.20;;
2147;SDS011;1080;48.724;9.104;2023-02-28T11:31:06;9.17;;;6.60;;
2147;SDS011;1080;48.724;9.104;2023-02-28T11:33:44;9.20;;;6.23;;
2147;SDS011;1080;48.724;9.104;2023-02-28T11:36:16;10.30;;;7.57;;
2147;SDS011;1080;48.724;9.104;2023-02-28T11:38:46;11.90;;;6.90;;
2147;SDS011;1080;48.724;9.104;2023-02-28T11:41:18;9.07;;;6.20;;
2147;SDS011;1080;48.724;9.104;2023-02-28T11:44:17;7.00;;;5.80;;
2147;SDS011;1080;48.724;9.104;2023-02-28T11:46:54;11.87;;;7.33;;
2147;SDS011;1080;48.724;9.104;2023-02-28T11:49:30;10.93;;;7.23;;
2147;SDS011;1080;48.724;9.104;2023-02-28T11:52:01;4.57;;;3.67;;
2147;SDS011;1080;48.724;9.104;2023-02-28T11:57:31;14.43;;;8.10;;
2147;SDS011;1080;48.724;9.104;2023-02-28T12:00:07;7.70;;;5.40;;
2147;SDS011;1080;48.724;9.104;2023-02-28T12:02:49;11.13;;;7.30;;
2147;SDS011;1080;48.724;9.104;2023-02-28T12:05:24;9.30;;;6.80;;
2147;SDS011;1080;48.724;9.104;2023-02-28T12:07:58;9.27;;;6.53;;
2147;SDS011;1080;48.724;9.104;2023-02-28T12:10:36;13.23;;;6.93;;
2147;SDS011;1080;48.724;9.104;2023-02-28T12:13:14;7.30;;;5.70;;
2147;SDS011;1080;48.724;9.104;2023-02-28T12:15:50;8.07;;;6.27;;
2147;SDS011;1080;48.724;9.104;2023-02-28T12:18:28;10.50;;;7.17;;
2147;SDS011;1080;48.724;9.104;2023-02-28T12:21:08;9.77;;;6.63;;
2147;SDS011;1080;48.724;9.104;2023-02-28T12:23:47;14.30;;;12.97;;
2147;SDS011;1080;48.724;9.104;2023-02-28T12:26:20;35.97;;;30.37;;
2147;SDS011;1080;48.724;9.104;2023-02-28T12:28:51;11.90;;;7.80;;
2147;SDS011;1080;48.724;9.104;2023-02-28T12:31:24;11.03;;;7.67;;
2147;SDS011;1080;48.724;9.104;2023-02-28T12:33:55;9.60;;;7.37;;
2147;SDS011;1080;48.724;9.104;2023-02-28T12:36:25;13.03;;;6.87;;
2147;SDS011;1080;48.724;9.104;2023-02-28T12:38:54;11.80;;;8.60;;
2147;SDS011;1080;48.724;9.104;2023-02-28T12:41:29;9.73;;;6.90;;
2147;SDS011;1080;48.724;9.104;2023-02-28T12:44:04;13.73;;;7.67;;
2147;SDS011;1080;48.724;9.104;2023-02-28T12:46:36;18.37;;;8.80;;
2147;SDS011;1080;48.724;9.104;2023-02-28T12:49:08;17.07;;;15.40;;
2147;SDS011;1080;48.724;9.104;2023-02-28T12:51:36;11.40;;;8.87;;
2147;SDS011;1080;48.724;9.104;2023-02-28T12:54:05;10.77;;;8.43;;
2147;SDS011;1080;48.724;9.104;2023-02-28T12:56:44;10.23;;;7.20;;
2147;SDS011;1080;48.724;9.104;2023-02-28T12:59:17;11.03;;;8.80;;
2147;SDS011;1080;48.724;9.104;2023-02-28T13:02:00;10.50;;;7.63;;
2147;SDS011;1080;48.724;9.104;2023-02-28T13:04:52;11.80;;;9.40;;
2147;SDS011;1080;48.724;9.104;2023-02-28T13:07:31;10.00;;;8.33;;
2147;SDS011;1080;48.724;9.104;2023-02-28T13:10:02;8.57;;;6.37;;
2147;SDS011;1080;48.724;9.104;2023-02-28T13:12:33;15.00;;;11.60;;
2147;SDS011;1080;48.724;9.104;2023-02-28T13:15:04;9.13;;;6.67;;
2147;SDS011;1080;48.724;9.104;2023-02-28T13:17:37;7.93;;;6.87;;
2147;SDS011;1080;48.724;9.104;2023-02-28T13:20:14;17.40;;;14.97;;
2147;SDS011;1080;48.724;9.104;2023-02-28T13:22:43;12.50;;;8.17;;
2147;SDS011;1080;48.724;9.104;2023-02-28T13:31:22;16.53;;;14.93;;
2147;SDS011;1080;48.724;9.104;2023-02-28T13:34:04;10.93;;;9.60;;
2147;SDS011;1080;48.724;9.104;2023-02-28T13:36:38;18.30;;;14.53;;
2147;SDS011;1080;48.724;9.104;2023-02-28T13:39:44;29.13;;;20.67;;
2147;SDS011;1080;48.724;9.104;2023-02-28T13:45:21;13.60;;;8.33;;
2147;SDS011;1080;48.724;9.104;2023-02-28T13:47:52;10.50;;;9.10;;
2147;SDS011;1080;48.724;9.104;2023-02-28T13:50:22;37.10;;;32.73;;
2147;SDS011;1080;48.724;9.104;2023-02-28T13:52:52;11.50;;;7.40;;
2147;SDS011;1080;48.724;9.104;2023-02-28T13:55:24;13.20;;;7.87;;
2147;SDS011;1080;48.724;9.104;2023-02-28T13:57:58;11.93;;;8.37;;
2147;SDS011;1080;48.724;9.104;2023-02-28T14:00:33;11.00;;;7.80;;
2147;SDS011;1080;48.724;9.104;2023-02-28T14:03:27;10.17;;;7.57;;
2147;SDS011;1080;48.724;9.104;2023-02-28T14:06:09;10.00;;;7.07;;
2147;SDS011;1080;48.724;9.104;2023-02-28T14:08:45;14.90;;;8.57;;
2147;SDS011;1080;48.724;9.104;2023-02-28T14:11:29;8.30;;;6.63;;
2147;SDS011;1080;48.724;9.104;2023-02-28T14:13:58;9.80;;;7.40;;
2147;SDS011;1080;48.724;9.104;2023-02-28T14:16:25;10.90;;;8.13;;
2147;SDS011;1080;48.724;9.104;2023-02-28T14:18:57;8.03;;;6.50;;
2147;SDS011;1080;48.724;9.104;2023-02-28T14:21:27;7.77;;;5.40;;
2147;SDS011;1080;48.724;9.104;2023-02-28T14:26:57;8.30;;;7.07;;
2147;SDS011;1080;48.724;9.104;2023-02-28T14:29:56;8.03;;;6.27;;
2147;SDS011;1080;48.724;9.104;2023-02-28T14:32:37;10.47;;;7.47;;
2147;SDS011;1080;48.724;9.104;2023-02-28T14:35:16;9.97;;;6.83;;
2147;SDS011;1080;48.724;9.104;2023-02-28T14:38:05;12.47;;;7.43;;
2147;SDS011;1080;48.724;9.104;2023-02-28T14:40:39;15.77;;;14.10;;
2147;SDS011;1080;48.724;9.104;2023-02-28T14:43:18;13.87;;;9.83;;
2147;SDS011;1080;48.724;9.104;2023-02-28T14:45:49;16.03;;;8.70;;
2147;SDS011;1080;48.724;9.104;2023-02-28T14:48:16;11.30;;;8.70;;
2147;SDS011;1080;48.724;9.104;2023-02-28T14:50:49;19.63;;;15.40;;
2147;SDS011;1080;48.724;9.104;2023-02-28T14:53:18;11.20;;;10.10;;
2147;SDS011;1080;48.724;9.104;2023-02-28T14:55:46;14.10;;;11.80;;
2147;SDS011;1080;48.724;9.104;2023-02-28T14:58:20;9.30;;;7.80;;
2147;SDS011;1080;48.724;9.104;2023-02-28T15:00:49;8.00;;;5.50;;
2147;SDS011;1080;48.724;9.104;2023-02-28T15:03:18;15.37;;;8.10;;
2147;SDS011;1080;48.724;9.104;2023-02-28T15:05:54;57.57;;;42.40;;
2147;SDS011;1080;48.724;9.104;2023-02-28T15:08:22;13.00;;;10.57;;
2147;SDS011;1080;48.724;9.104;2023-02-28T15:10:51;8.53;;;7.30;;
2147;SDS011;1080;48.724;9.104;2023-02-28T15:13:22;8.37;;;6.97;;
2147;SDS011;1080;48.724;9.104;2023-02-28T15:15:53;11.77;;;7.97;;
2147;SDS011;1080;48.724;9.104;2023-02-28T15:18:24;11.77;;;7.57;;
2147;SDS011;1080;48.724;9.104;2023-02-28T15:20:58;11.77;;;10.10;;
2147;SDS011;1080;48.724;9.104;2023-02-28T15:23:28;15.47;;;11.50;;
2147;SDS011;1080;48.724;9.104;2023-02-28T15:25:55;9.40;;;7.00;;
2147;SDS011;1080;48.724;9.104;2023-02-28T15:28:24;9.70;;;7.27;;
2147;SDS011;1080;48.724;9.104;2023-02-28T15:30:53;49.93;;;37.07;;
2147;SDS011;1080;48.724;9.104;2023-02-28T15:33:22;24.43;;;22.40;;
2147;SDS011;1080;48.724;9.104;2023-02-28T15:35:50;31.87;;;26.23;;
2147;SDS011;1080;48.724;9.104;2023-02-28T15:38:21;55.83;;;39.77;;
2147;SDS011;1080;48.724;9.104;2023-02-28T15:40:50;66.13;;;43.17;;
2147;SDS011;1080;48.724;9.104;2023-02-28T15:43:24;30.70;;;27.70;;
2147;SDS011;1080;48.724;9.104;2023-02-28T15:45:52;19.63;;;13.53;;
2147;SDS011;1080;48.724;9.104;2023-02-28T15:48:24;90.63;;;48.77;;
2147;SDS011;1080;48.724;9.104;2023-02-28T15:50:53;119.43;;;60.40;;
2147;SDS011;1080;48.724;9.104;2023-02-28T15:53:23;174.40;;;76.27;;
2147;SDS011;1080;48.724;9.104;2023-02-28T15:55:55;139.87;;;65.20;;
2147;SDS011;1080;48.724;9.104;2023-02-28T15:58:22;139.13;;;63.40;;
2147;SDS011;1080;48.724;9.104;2023-02-28T16:03:38;16.53;;;11.80;;
2147;SDS011;1080;48.724;9.104;2023-02-28T16:08:59;9.77;;;5.50;;
2147;SDS011;1080;48.724;9.104;2023-02-28T16:11:27;30.43;;;27.43;;
2147;SDS011;1080;48.724;9.104;2023-02-28T16:13:55;35.07;;;31.43;;
2147;SDS011;1080;48.724;9.104;2023-02-28T16:16:23;10.10;;;7.87;;
2147;SDS011;1080;48.724;9.104;2023-02-28T16:18:51;17.00;;;15.37;;
2147;SDS011;1080;48.724;9.104;2023-02-28T16:21:18;11.37;;;8.77;;
2147;SDS011;1080;48.724;9.104;2023-02-28T16:23:45;9.63;;;6.83;;
2147;SDS011;1080;48.724;9.104;2023-02-28T16:26:17;7.47;;;4.07;;
2147;SDS011;1080;48.724;9.104;2023-02-28T16:28:47;8.50;;;6.20;;
2147;SDS011;1080;48.724;9.104;2023-02-28T16:31:14;11.53;;;7.23;;
2147;SDS011;1080;48.724;9.104;2023-02-28T16:33:41;8.70;;;6.60;;
2147;SDS011;1080;48.724;9.104;2023-02-28T16:36:09;13.40;;;8.00;;
2147;SDS011;1080;48.724;9.104;2023-02-28T16:38:37;9.77;;;7.33;;
2147;SDS011;1080;48.724;9.104;2023-02-28T16:41:04;13.27;;;7.47;;
2147;SDS011;1080;48.724;9.104;2023-02-28T16:43:33;12.60;;;9.27;;
2147;SDS011;1080;48.724;9.104;2023-02-28T16:46:00;13.50;;;8.17;;
2147;SDS011;1080;48.724;9.104;2023-02-28T16:48:28;12.80;;;7.80;;
2147;SDS011;1080;48.724;9.104;2023-02-28T16:50:56;9.87;;;6.67;;
2147;SDS011;1080;48.724;9.104;2023-02-28T16:53:23;9.60;;;7.03;;
2147;SDS011;1080;48.724;9.104;2023-02-28T16:55:50;9.10;;;6.47;;
2147;SDS011;1080;48.724;9.104;2023-02-28T16:58:17;9.63;;;6.90;;
2147;SDS011;1080;48.724;9.104;2023-02-28T17:00:48;8.27;;;6.77;;
2147;SDS011;1080;48.724;9.104;2023-02-28T17:03:19;14.00;;;7.20;;
2147;SDS011;1080;48.724;9.104;2023-02-28T17:05:49;13.10;;;8.47;;
2147;SDS011;1080;48.724;9.104;2023-02-28T17:08:16;9.50;;;7.60;;
2147;SDS011;1080;48.724;9.104;2023-02-28T17:10:43;9.70;;;7.37;;
2147;SDS011;1080;48.724;9.104;2023-02-28T17:13:10;9.33;;;7.70;;
2147;SDS011;1080;48.724;9.104;2023-02-28T17:15:37;9.77;;;7.13;;
2147;SDS011;1080;48.724;9.104;2023-02-28T17:18:08;9.10;;;6.50;;
2147;SDS011;1080;48.724;9.104;2023-02-28T17:20:35;10.07;;;7.07;;
2147;SDS011;1080;48.724;9.104;2023-02-28T17:23:02;11.53;;;7.10;;
2147;SDS011;1080;48.724;9.104;2023-02-28T17:25:29;11.50;;;7.60;;
2147;SDS011;1080;48.724;9.104;2023-02-28T17:27:56;10.87;;;8.10;;
2147;SDS011;1080;48.724;9.104;2023-02-28T17:30:24;11.17;;;7.17;;
2147;SDS011;1080;48.724;9.104;2023-02-28T17:32:52;16.27;;;12.50;;
2147;SDS011;1080;48.724;9.104;2023-02-28T17:35:21;10.40;;;8.03;;
2147;SDS011;1080;48.724;9.104;2023-02-28T17:37:48;9.50;;;6.63;;
2147;SDS011;1080;48.724;9.104;2023-02-28T17:40:16;12.07;;;7.47;;
2147;SDS011;1080;48.724;9.104;2023-02-28T17:42:44;15.20;;;6.90;;
2147;SDS011;1080;48.724;9.104;2023-02-28T17:45:12;11.93;;;8.03;;
2147;SDS011;1080;48.724;9.104;2023-02-28T17:47:40;11.93;;;7.77;;
2147;SDS011;1080;48.724;9.104;2023-02-28T17:50:11;8.80;;;5.70;;
2147;SDS011;1080;48.724;9.104;2023-02-28T17:52:42;13.07;;;7.27;;
2147;SDS011;1080;48.724;9.104;2023-02-28T17:55:09;9.90;;;6.73;;
2147;SDS011;1080;48.724;9.104;2023-02-28T17:57:37;15.57;;;6.93;;
2147;SDS011;1080;48.724;9.104;2023-02-28T18:00:04;11.17;;;8.50;;
2147;SDS011;1080;48.724;9.104;2023-02-28T18:02:32;12.10;;;8.70;;
2147;SDS011;1080;48.724;9.104;2023-02-28T18:04:59;12.53;;;8.00;;
2147;SDS011;1080;48.724;9.104;2023-02-28T18:07:29;9.00;;;6.73;;
2147;SDS011;1080;48.724;9.104;2023-02-28T18:09:57;9.03;;;6.90;;
2147;SDS011;1080;48.724;9.104;2023-02-28T18:12:24;10.77;;;6.90;;
2147;SDS011;1080;48.724;9.104;2023-02-28T18:14:51;13.07;;;8.00;;
2147;SDS011;1080;48.724;9.104;2023-02-28T18:17:19;12.87;;;6.90;;
2147;SDS011;1080;48.724;9.104;2023-02-28T18:19:46;10.43;;;7.10;;
2147;SDS011;1080;48.724;9.104;2023-02-28T18:22:13;9.73;;;7.00;;
2147;SDS011;1080;48.724;9.104;2023-02-28T18:24:40;12.60;;;7.87;;
2147;SDS011;1080;48.724;9.104;2023-02-28T18:27:09;11.60;;;7.40;;
2147;SDS011;1080;48.724;9.104;2023-02-28T18:29:36;11.77;;;8.67;;
2147;SDS011;1080;48.724;9.104;2023-02-28T18:32:04;11.37;;;7.40;;
2147;SDS011;1080;48.724;9.104;2023-02-28T18:34:31;11.10;;;8.00;;
2147;SDS011;1080;48.724;9.104;2023-02-28T18:36:58;14.37;;;8.87;;
2147;SDS011;1080;48.724;9.104;2023-02-28T18:39:25;11.00;;;7.90;;
2147;SDS011;1080;48.724;9.104;2023-02-28T18:41:52;13.37;;;8.70;;
2147;SDS011;1080;48.724;9.104;2023-02-28T18:44:20;11.60;;;8.23;;
2147;SDS011;1080;48.724;9.104;2023-02-28T18:46:48;11.97;;;7.77;;
2147;SDS011;1080;48.724;9.104;2023-02-28T18:49:15;13.63;;;8.63;;
2147;SDS011;1080;48.724;9.104;2023-02-28T18:51:42;15.57;;;11.17;;
2147;SDS011;1080;48.724;9.104;2023-02-28T18:54:10;16.07;;;10.37;;
2147;SDS011;1080;48.724;9.104;2023-02-28T18:56:38;21.27;;;11.40;;
2147;SDS011;1080;48.724;9.104;2023-02-28T18:59:05;18.13;;;12.07;;
2147;SDS011;1080;48.724;9.104;2023-02-28T19:01:33;17.00;;;11.53;;
2147;SDS011;1080;48.724;9.104;2023-02-28T19:04:01;21.03;;;12.37;;
2147;SDS011;1080;48.724;9.104;2023-02-28T19:06:28;18.47;;;12.80;;
2147;SDS011;1080;48.724;9.104;2023-02-28T19:08:57;22.50;;;12.23;;
2147;SDS011;1080;48.724;9.104;2023-02-28T19:11:25;16.30;;;10.83;;
2147;SDS011;1080;48.724;9.104;2023-02-28T19:13:52;19.80;;;11.80;;
2147;SDS011;1080;48.724;9.104;2023-02-28T19:16:20;16.80;;;10.57;;
2147;SDS011;1080;48.724;9.104;2023-02-28T19:18:48;19.20;;;13.17;;
2147;SDS011;1080;48.724;9.104;2023-02-28T19:21:16;21.27;;;14.07;;
2147;SDS011;1080;48.724;9.104;2023-02-28T19:23:44;22.83;;;12.27;;
2147;SDS011;1080;48.724;9.104;2023-02-28T19:26:11;21.97;;;13.43;;
2147;SDS011;1080;48.724;9.104;2023-02-28T19:28:40;21.10;;;11.67;;
2147;SDS011;1080;48.724;9.104;2023-02-28T19:31:10;18.03;;;12.67;;
2147;SDS011;1080;48.724;9.104;2023-02-28T19:33:38;17.77;;;12.87;;
2147;SDS011;1080;48.724;9.104;2023-02-28T19:36:07;19.37;;;11.87;;
2147;SDS011;1080;48.724;9.104;2023-02-28T19:38:36;18.87;;;10.40;;
2147;SDS011;1080;48.724;9.104;2023-02-28T19:41:04;21.60;;;10.97;;
2147;SDS011;1080;48.724;9.104;2023-02-28T19:43:32;15.00;;;10.43;;
2147;SDS011;1080;48.724;9.104;2023-02-28T19:45:59;16.27;;;10.80;;
2147;SDS011;1080;48.724;9.104;2023-02-28T19:48:26;16.60;;;10.60;;
2147;SDS011;1080;48.724;9.104;2023-02-28T19:50:56;16.00;;;10.47;;
2147;SDS011;1080;48.724;9.104;2023-02-28T19:53:25;15.60;;;10.17;;
2147;SDS011;1080;48.724;9.104;2023-02-28T19:55:52;17.13;;;10.50;;
2147;SDS011;1080;48.724;9.104;2023-02-28T19:58:19;14.57;;;10.40;;
2147;SDS011;1080;48.724;9.104;2023-02-28T20:00:46;16.60;;;9.93;;
2147;SDS011;1080;48.724;9.104;2023-02-28T20:03:13;16.30;;;10.40;;
2147;SDS011;1080;48.724;9.104;2023-02-28T20:05:41;21.97;;;12.33;;
2147;SDS011;1080;48.724;9.104;2023-02-28T20:08:08;20.87;;;12.33;;
2147;SDS011;1080;48.724;9.104;2023-02-28T20:10:37;16.47;;;10.50;;
2147;SDS011;1080;48.724;9.104;2023-02-28T20:13:04;21.80;;;11.33;;
2147;SDS011;1080;48.724;9.104;2023-02-28T20:15:31;29.47;;;14.23;;
2147;SDS011;1080;48.724;9.104;2023-02-28T20:17:58;17.50;;;10.00;;
2147;SDS011;1080;48.724;9.104;2023-02-28T20:20:25;19.60;;;11.37;;
2147;SDS011;1080;48.724;9.104;2023-02-28T20:22:52;20.40;;;12.30;;
2147;SDS011;1080;48.724;9.104;2023-02-28T20:25:19;15.30;;;9.73;;
2147;SDS011;1080;48.724;9.104;2023-02-28T20:27:48;13.10;;;9.23;;
2147;SDS011;1080;48.724;9.104;2023-02-28T20:30:14;14.73;;;9.17;;
2147;SDS011;1080;48.724;9.104;2023-02-28T20:32:41;15.17;;;8.10;;
2147;SDS011;1080;48.724;9.104;2023-02-28T20:35:09;16.63;;;9.40;;
2147;SDS011;1080;48.724;9.104;2023-02-28T20:37:36;15.17;;;9.23;;
2147;SDS011;1080;48.724;9.104;2023-02-28T20:40:04;17.77;;;9.60;;
2147;SDS011;1080;48.724;9.104;2023-02-28T20:42:31;17.17;;;10.53;;
2147;SDS011;1080;48.724;9.104;2023-02-28T20:45:00;15.83;;;9.60;;
2147;SDS011;1080;48.724;9.104;2023-02-28T20:47:27;16.70;;;9.80;;
2147;SDS011;1080;48.724;9.104;2023-02-28T20:49:54;17.97;;;9.20;;
2147;SDS011;1080;48.724;9.104;2023-02-28T20:52:21;13.50;;;8.40;;
2147;SDS011;1080;48.724;9.104;2023-02-28T20:54:48;15.50;;;9.57;;
2147;SDS011;1080;48.724;9.104;2023-02-28T20:57:15;12.43;;;8.70;;
2147;SDS011;1080;48.724;9.104;2023-02-28T20:59:44;17.23;;;9.30;;
2147;SDS011;1080;48.724;9.104;2023-02-28T21:02:13;12.83;;;8.30;;
2147;SDS011;1080;48.724;9.104;2023-02-28T21:04:41;13.20;;;8.37;;
2147;SDS011;1080;48.724;9.104;2023-02-28T21:07:08;15.17;;;8.83;;
2147;SDS011;1080;48.724;9.104;2023-02-28T21:09:36;13.17;;;9.13;;
2147;SDS011;1080;48.724;9.104;2023-02-28T21:12:03;11.60;;;7.57;;
2147;SDS011;1080;48.724;9.104;2023-02-28T21:14:30;11.53;;;8.07;;
2147;SDS011;1080;48.724;9.104;2023-02-28T21:16:57;16.33;;;9.53;;
2147;SDS011;1080;48.724;9.104;2023-02-28T21:19:26;17.67;;;8.77;;
2147;SDS011;1080;48.724;9.104;2023-02-28T21:21:54;16.10;;;8.23;;
2147;SDS011;1080;48.724;9.104;2023-02-28T21:24:20;16.00;;;9.83;;
2147;SDS011;1080;48.724;9.104;2023-02-28T21:26:47;16.57;;;8.23;;
2147;SDS011;1080;48.724;9.104;2023-02-28T21:29:15;14.97;;;9.03;;
2147;SDS011;1080;48.724;9.104;2023-02-28T21:31:43;15.97;;;9.53;;
2147;SDS011;1080;48.724;9.104;2023-02-28T21:34:10;14.93;;;8.97;;
2147;SDS011;1080;48.724;9.104;2023-02-28T21:36:39;21.57;;;8.60;;
2147;SDS011;1080;48.724;9.104;2023-02-28T21:39:11;26.10;;;9.43;;
2147;SDS011;1080;48.724;9.104;2023-02-28T21:41:39;27.80;;;14.00;;
2147;SDS011;1080;48.724;9.104;2023-02-28T21:44:07;13.67;;;8.70;;
2147;SDS011;1080;48.724;9.104;2023-02-28T21:46:34;16.27;;;9.43;;
2147;SDS011;1080;48.724;9.104;2023-02-28T21:49:01;15.47;;;9.30;;
2147;SDS011;1080;48.724;9.104;2023-02-28T21:51:28;15.50;;;9.03;;
2147;SDS011;1080;48.724;9.104;2023-02-28T21:53:58;15.30;;;8.37;;
2147;SDS011;1080;48.724;9.104;2023-02-28T21:56:26;13.37;;;7.47;;
2147;SDS011;1080;48.724;9.104;2023-02-28T21:58:54;20.23;;;9.27;;
2147;SDS011;1080;48.724;9.104;2023-02-28T22:01:24;16.20;;;7.80;;
2147;SDS011;1080;48.724;9.104;2023-02-28T22:03:53;17.40;;;8.87;;
2147;SDS011;1080;48.724;9.104;2023-02-28T22:06:21;16.80;;;7.73;;
2147;SDS011;1080;48.724;9.104;2023-02-28T22:08:50;15.40;;;9.90;;
2147;SDS011;1080;48.724;9.104;2023-02-28T22:11:20;10.13;;;7.60;;
2147;SDS011;1080;48.724;9.104;2023-02-28T22:13:47;12.33;;;8.60;;
2147;SDS011;1080;48.724;9.104;2023-02-28T22:16:15;9.87;;;6.80;;
2147;SDS011;1080;48.724;9.104;2023-02-28T22:18:45;12.00;;;7.80;;
2147;SDS011;1080;48.724;9.104;2023-02-28T22:21:13;10.73;;;7.20;;
2147;SDS011;1080;48.724;9.104;2023-02-28T22:23:41;20.30;;;9.07;;
2147;SDS011;1080;48.724;9.104;2023-02-28T22:26:09;13.73;;;8.10;;
2147;SDS011;1080;48.724;9.104;2023-02-28T22:28:38;12.90;;;9.00;;
2147;SDS011;1080;48.724;9.104;2023-02-28T22:31:12;14.17;;;8.27;;
2147;SDS011;1080;48.724;9.104;2023-02-28T22:33:39;16.50;;;9.03;;
2147;SDS011;1080;48.724;9.104;2023-02-28T22:36:07;12.63;;;7.60;;
2147;SDS011;1080;48.724;9.104;2023-02-28T22:38:34;14.30;;;8.50;;
2147;SDS011;1080;48.724;9.104;2023-02-28T22:41:02;15.27;;;8.27;;
2147;SDS011;1080;48.724;9.104;2023-02-28T22:43:29;15.33;;;8.67;;
2147;SDS011;1080;48.724;9.104;2023-02-28T22:46:00;16.17;;;8.70;;
2147;SDS011;1080;48.724;9.104;2023-02-28T22:48:28;15.40;;;8.10;;
2147;SDS011;1080;48.724;9.104;2023-02-28T22:51:01;13.90;;;9.00;;
2147;SDS011;1080;48.724;9.104;2023-02-28T22:53:29;16.13;;;9.13;;
2147;SDS011;1080;48.724;9.104;2023-02-28T22:55:56;13.10;;;7.57;;
2147;SDS011;1080;48.724;9.104;2023-02-28T22:58:23;18.83;;;9.37;;
2147;SDS011;1080;48.724;9.104;2023-02-28T23:00:51;14.47;;;8.90;;
2147;SDS011;1080;48.724;9.104;2023-02-28T23:03:21;15.57;;;9.07;;
2147;SDS011;1080;48.724;9.104;2023-02-28T23:05:48;16.80;;;9.57;;
2147;SDS011;1080;48.724;9.104;2023-02-28T23:08:15;14.77;;;8.20;;
2147;SDS011;1080;48.724;9.104;2023-02-28T23:10:46;20.60;;;10.13;;
2147;SDS011;1080;48.724;9.104;2023-02-28T23:13:14;34.57;;;12.00;;
2147;SDS011;1080;48.724;9.104;2023-02-28T23:15:42;20.40;;;10.53;;
2147;SDS011;1080;48.724;9.104;2023-02-28T23:18:09;20.33;;;10.70;;
2147;SDS011;1080;48.724;9.104;2023-02-28T23:20:38;26.23;;;13.80;;
2147;SDS011;1080;48.724;9.104;2023-02-28T23:23:05;18.47;;;9.60;;
2147;SDS011;1080;48.724;9.104;2023-02-28T23:25:34;17.37;;;10.10;;
2147;SDS011;1080;48.724;9.104;2023-02-28T23:28:04;16.20;;;8.90;;
2147;SDS011;1080;48.724;9.104;2023-02-28T23:30:31;15.50;;;8.40;;
2147;SDS011;1080;48.724;9.104;2023-02-28T23:32:58;16.57;;;8.47;;
2147;SDS011;1080;48.724;9.104;2023-02-28T23:35:25;14.80;;;8.60;;
2147;SDS011;1080;48.724;9.104;2023-02-28T23:37:55;11.77;;;7.70;;
2147;SDS011;1080;48.724;9.104;2023-02-28T23:40:23;16.10;;;9.10;;
2147;SDS011;1080;48.724;9.104;2023-02-28T23:42:50;16.97;;;9.03;;
2147;SDS011;1080;48.724;9.104;2023-02-28T23:45:18;15.53;;;8.40;;
2147;SDS011;1080;48.724;9.104;2023-02-28T23:47:45;14.40;;;9.20;;
2147;SDS011;1080;48.724;9.104;2023-02-28T23:50:12;15.27;;;9.63;;
2147;SDS011;1080;48.724;9.104;2023-02-28T23:52:39;16.90;;;9.57;;
2147;SDS011;1080;48.724;9.104;2023-02-28T23:55:08;14.97;;;7.97;;
2147;SDS011;1080;48.724;9.104;2023-02-28T23:57:35;16.00;;;8.60;;
